sensor_id;sensor_type;location;lat;lon;timestamp;temperature;humidity
73112;HTU21D;61301;51.956;5.876;2022-10-16T00:01:26;16.28;65.62
73112;HTU21D;61301;51.956;5.876;2022-10-16T00:03:56;16.30;65.49
73112;HTU21D;61301;51.956;5.876;2022-10-16T00:06:23;16.31;65.44
73112;HTU21D;61301;51.956;5.876;2022-10-16T00:08:50;16.29;65.51
73112;HTU21D;61301;51.956;5.876;2022-10-16T00:11:25;16.30;65.40
73112;HTU21D;61301;51.956;5.876;2022-10-16T00:13:55;16.29;65.52
73112;HTU21D;61301;51.956;5.876;2022-10-16T00:16:22;16.28;65.56
73112;HTU21D;61301;51.956;5.876;2022-10-16T00:18:48;16.27;65.60
73112;HTU21D;61301;51.956;5.876;2022-10-16T00:21:21;16.24;65.75
73112;HTU21D;61301;51.956;5.876;2022-10-16T00:23:51;16.18;65.88
73112;HTU21D;61301;51.956;5.876;2022-10-16T00:26:18;16.19;65.88
73112;HTU21D;61301;51.956;5.876;2022-10-16T00:28:49;16.19;65.98
73112;HTU21D;61301;51.956;5.876;2022-10-16T00:31:18;16.21;65.95
73112;HTU21D;61301;51.956;5.876;2022-10-16T00:33:47;16.20;65.98
73112;HTU21D;61301;51.956;5.876;2022-10-16T00:36:20;16.18;66.14
73112;HTU21D;61301;51.956;5.876;2022-10-16T00:38:46;16.12;66.40
73112;HTU21D;61301;51.956;5.876;2022-10-16T00:41:15;16.08;66.64
73112;HTU21D;61301;51.956;5.876;2022-10-16T00:43:56;16.05;66.69
73112;HTU21D;61301;51.956;5.876;2022-10-16T00:48:54;16.08;66.98
73112;HTU21D;61301;51.956;5.876;2022-10-16T00:51:25;16.22;66.44
73112;HTU21D;61301;51.956;5.876;2022-10-16T00:53:54;16.24;66.44
73112;HTU21D;61301;51.956;5.876;2022-10-16T00:56:21;16.31;66.20
73112;HTU21D;61301;51.956;5.876;2022-10-16T00:58:47;16.29;66.36
73112;HTU21D;61301;51.956;5.876;2022-10-16T01:01:13;16.31;66.33
73112;HTU21D;61301;51.956;5.876;2022-10-16T01:03:39;16.29;66.46
73112;HTU21D;61301;51.956;5.876;2022-10-16T01:09:37;16.28;66.66
73112;HTU21D;61301;51.956;5.876;2022-10-16T01:12:38;16.31;66.63
73112;HTU21D;61301;51.956;5.876;2022-10-16T01:15:14;16.25;66.78
73112;HTU21D;61301;51.956;5.876;2022-10-16T01:20:33;16.25;66.97
73112;HTU21D;61301;51.956;5.876;2022-10-16T01:23:21;16.30;66.81
73112;HTU21D;61301;51.956;5.876;2022-10-16T01:28:58;16.29;66.87
73112;HTU21D;61301;51.956;5.876;2022-10-16T01:31:32;16.34;66.83
73112;HTU21D;61301;51.956;5.876;2022-10-16T01:34:12;16.27;67.14
73112;HTU21D;61301;51.956;5.876;2022-10-16T01:36:46;16.29;67.00
73112;HTU21D;61301;51.956;5.876;2022-10-16T01:39:13;16.27;67.09
73112;HTU21D;61301;51.956;5.876;2022-10-16T01:41:46;16.28;67.17
73112;HTU21D;61301;51.956;5.876;2022-10-16T01:44:19;16.25;67.34
73112;HTU21D;61301;51.956;5.876;2022-10-16T01:46:48;16.28;67.20
73112;HTU21D;61301;51.956;5.876;2022-10-16T01:49:16;16.33;67.04
73112;HTU21D;61301;51.956;5.876;2022-10-16T01:51:45;16.35;66.98
73112;HTU21D;61301;51.956;5.876;2022-10-16T01:54:14;16.43;66.82
73112;HTU21D;61301;51.956;5.876;2022-10-16T01:56:42;16.44;66.93
73112;HTU21D;61301;51.956;5.876;2022-10-16T01:59:20;16.45;66.88
73112;HTU21D;61301;51.956;5.876;2022-10-16T02:01:51;16.48;66.76
73112;HTU21D;61301;51.956;5.876;2022-10-16T02:04:27;16.44;66.95
73112;HTU21D;61301;51.956;5.876;2022-10-16T02:06:57;16.32;67.40
73112;HTU21D;61301;51.956;5.876;2022-10-16T02:09:23;16.30;67.41
73112;HTU21D;61301;51.956;5.876;2022-10-16T02:11:52;16.56;66.49
73112;HTU21D;61301;51.956;5.876;2022-10-16T02:14:23;16.55;66.58
73112;HTU21D;61301;51.956;5.876;2022-10-16T02:16:50;16.54;66.67
73112;HTU21D;61301;51.956;5.876;2022-10-16T02:19:17;16.52;66.88
73112;HTU21D;61301;51.956;5.876;2022-10-16T02:21:54;16.57;66.70
73112;HTU21D;61301;51.956;5.876;2022-10-16T02:24:26;16.56;66.79
73112;HTU21D;61301;51.956;5.876;2022-10-16T02:27:03;16.56;66.75
73112;HTU21D;61301;51.956;5.876;2022-10-16T02:29:32;16.60;66.56
73112;HTU21D;61301;51.956;5.876;2022-10-16T02:32:04;16.61;66.50
73112;HTU21D;61301;51.956;5.876;2022-10-16T02:34:32;16.56;66.75
73112;HTU21D;61301;51.956;5.876;2022-10-16T02:37:01;16.61;66.51
73112;HTU21D;61301;51.956;5.876;2022-10-16T02:39:28;16.59;66.60
73112;HTU21D;61301;51.956;5.876;2022-10-16T02:41:55;16.45;67.11
73112;HTU21D;61301;51.956;5.876;2022-10-16T02:44:21;16.40;67.27
73112;HTU21D;61301;51.956;5.876;2022-10-16T02:46:47;16.40;67.26
73112;HTU21D;61301;51.956;5.876;2022-10-16T02:49:13;16.45;67.08
73112;HTU21D;61301;51.956;5.876;2022-10-16T02:51:39;16.50;66.78
73112;HTU21D;61301;51.956;5.876;2022-10-16T02:54:05;16.46;66.87
73112;HTU21D;61301;51.956;5.876;2022-10-16T02:56:31;16.39;67.03
73112;HTU21D;61301;51.956;5.876;2022-10-16T02:58:57;16.35;67.14
73112;HTU21D;61301;51.956;5.876;2022-10-16T03:01:24;16.33;67.12
73112;HTU21D;61301;51.956;5.876;2022-10-16T03:03:50;16.35;67.04
73112;HTU21D;61301;51.956;5.876;2022-10-16T03:06:16;16.35;66.91
73112;HTU21D;61301;51.956;5.876;2022-10-16T03:08:42;16.36;66.78
73112;HTU21D;61301;51.956;5.876;2022-10-16T03:11:08;16.34;66.81
73112;HTU21D;61301;51.956;5.876;2022-10-16T03:13:34;16.33;66.85
73112;HTU21D;61301;51.956;5.876;2022-10-16T03:16:00;16.34;66.81
73112;HTU21D;61301;51.956;5.876;2022-10-16T03:18:26;16.33;66.96
73112;HTU21D;61301;51.956;5.876;2022-10-16T03:20:52;16.32;66.89
73112;HTU21D;61301;51.956;5.876;2022-10-16T03:23:18;16.31;66.85
73112;HTU21D;61301;51.956;5.876;2022-10-16T03:25:44;16.31;66.87
73112;HTU21D;61301;51.956;5.876;2022-10-16T03:28:10;16.30;66.84
73112;HTU21D;61301;51.956;5.876;2022-10-16T03:30:37;16.29;66.90
73112;HTU21D;61301;51.956;5.876;2022-10-16T03:33:05;16.27;66.89
73112;HTU21D;61301;51.956;5.876;2022-10-16T03:35:32;16.21;67.19
73112;HTU21D;61301;51.956;5.876;2022-10-16T03:37:58;16.19;67.23
73112;HTU21D;61301;51.956;5.876;2022-10-16T03:40:24;16.19;67.30
73112;HTU21D;61301;51.956;5.876;2022-10-16T03:42:50;16.18;67.33
73112;HTU21D;61301;51.956;5.876;2022-10-16T03:45:17;16.13;67.46
73112;HTU21D;61301;51.956;5.876;2022-10-16T03:47:43;16.12;67.45
73112;HTU21D;61301;51.956;5.876;2022-10-16T03:50:09;16.13;67.38
73112;HTU21D;61301;51.956;5.876;2022-10-16T03:52:35;16.11;67.49
73112;HTU21D;61301;51.956;5.876;2022-10-16T03:55:01;16.08;67.57
73112;HTU21D;61301;51.956;5.876;2022-10-16T03:57:28;16.35;66.55
73112;HTU21D;61301;51.956;5.876;2022-10-16T03:59:54;16.44;66.21
73112;HTU21D;61301;51.956;5.876;2022-10-16T04:02:20;16.41;66.43
73112;HTU21D;61301;51.956;5.876;2022-10-16T04:04:46;16.36;66.61
73112;HTU21D;61301;51.956;5.876;2022-10-16T04:07:12;16.36;66.54
73112;HTU21D;61301;51.956;5.876;2022-10-16T04:09:38;16.34;66.64
73112;HTU21D;61301;51.956;5.876;2022-10-16T04:12:04;16.30;66.97
73112;HTU21D;61301;51.956;5.876;2022-10-16T04:14:30;16.14;67.55
73112;HTU21D;61301;51.956;5.876;2022-10-16T04:16:56;16.11;67.86
73112;HTU21D;61301;51.956;5.876;2022-10-16T04:19:22;16.12;67.86
73112;HTU21D;61301;51.956;5.876;2022-10-16T04:21:48;16.12;67.97
73112;HTU21D;61301;51.956;5.876;2022-10-16T04:24:14;16.18;67.80
73112;HTU21D;61301;51.956;5.876;2022-10-16T04:26:40;16.24;67.57
73112;HTU21D;61301;51.956;5.876;2022-10-16T04:29:06;16.27;67.46
73112;HTU21D;61301;51.956;5.876;2022-10-16T04:31:33;16.27;67.55
73112;HTU21D;61301;51.956;5.876;2022-10-16T04:33:59;16.22;67.71
73112;HTU21D;61301;51.956;5.876;2022-10-16T04:36:25;16.25;67.68
73112;HTU21D;61301;51.956;5.876;2022-10-16T04:38:51;16.25;67.70
73112;HTU21D;61301;51.956;5.876;2022-10-16T04:41:17;16.21;67.72
73112;HTU21D;61301;51.956;5.876;2022-10-16T04:43:43;16.29;67.49
73112;HTU21D;61301;51.956;5.876;2022-10-16T04:46:09;16.33;67.27
73112;HTU21D;61301;51.956;5.876;2022-10-16T04:48:36;16.19;67.75
73112;HTU21D;61301;51.956;5.876;2022-10-16T04:51:02;16.19;67.70
73112;HTU21D;61301;51.956;5.876;2022-10-16T04:53:28;16.20;67.62
73112;HTU21D;61301;51.956;5.876;2022-10-16T04:55:54;16.18;67.60
73112;HTU21D;61301;51.956;5.876;2022-10-16T04:58:22;16.20;67.48
73112;HTU21D;61301;51.956;5.876;2022-10-16T05:00:48;16.22;67.47
73112;HTU21D;61301;51.956;5.876;2022-10-16T05:03:14;16.26;67.39
73112;HTU21D;61301;51.956;5.876;2022-10-16T05:05:45;16.15;67.87
73112;HTU21D;61301;51.956;5.876;2022-10-16T05:08:15;16.15;67.78
73112;HTU21D;61301;51.956;5.876;2022-10-16T05:10:42;16.17;67.70
73112;HTU21D;61301;51.956;5.876;2022-10-16T05:13:09;16.17;67.66
73112;HTU21D;61301;51.956;5.876;2022-10-16T05:15:35;16.16;67.55
73112;HTU21D;61301;51.956;5.876;2022-10-16T05:18:01;16.17;67.48
73112;HTU21D;61301;51.956;5.876;2022-10-16T05:20:27;16.18;67.36
73112;HTU21D;61301;51.956;5.876;2022-10-16T05:22:54;16.15;67.34
73112;HTU21D;61301;51.956;5.876;2022-10-16T05:25:20;16.12;67.39
73112;HTU21D;61301;51.956;5.876;2022-10-16T05:27:49;16.04;67.59
73112;HTU21D;61301;51.956;5.876;2022-10-16T05:30:16;16.04;67.50
73112;HTU21D;61301;51.956;5.876;2022-10-16T05:32:49;16.08;67.16
73112;HTU21D;61301;51.956;5.876;2022-10-16T05:35:16;16.02;67.28
73112;HTU21D;61301;51.956;5.876;2022-10-16T05:37:44;16.01;67.20
73112;HTU21D;61301;51.956;5.876;2022-10-16T05:40:11;15.98;67.14
73112;HTU21D;61301;51.956;5.876;2022-10-16T05:42:39;15.97;67.17
73112;HTU21D;61301;51.956;5.876;2022-10-16T05:45:06;15.93;67.15
73112;HTU21D;61301;51.956;5.876;2022-10-16T05:47:32;15.84;67.36
73112;HTU21D;61301;51.956;5.876;2022-10-16T05:49:58;15.81;67.41
73112;HTU21D;61301;51.956;5.876;2022-10-16T05:52:24;15.76;67.53
73112;HTU21D;61301;51.956;5.876;2022-10-16T05:54:50;15.73;67.55
73112;HTU21D;61301;51.956;5.876;2022-10-16T05:57:16;15.72;67.55
73112;HTU21D;61301;51.956;5.876;2022-10-16T05:59:42;15.70;67.61
73112;HTU21D;61301;51.956;5.876;2022-10-16T06:02:12;15.72;67.58
73112;HTU21D;61301;51.956;5.876;2022-10-16T06:04:38;15.76;67.38
73112;HTU21D;61301;51.956;5.876;2022-10-16T06:07:05;15.77;67.30
73112;HTU21D;61301;51.956;5.876;2022-10-16T06:09:31;15.73;67.57
73112;HTU21D;61301;51.956;5.876;2022-10-16T06:11:57;15.73;67.58
73112;HTU21D;61301;51.956;5.876;2022-10-16T06:14:23;15.82;67.33
73112;HTU21D;61301;51.956;5.876;2022-10-16T06:16:49;15.76;67.59
73112;HTU21D;61301;51.956;5.876;2022-10-16T06:19:15;15.76;67.88
73112;HTU21D;61301;51.956;5.876;2022-10-16T06:21:45;15.78;67.84
73112;HTU21D;61301;51.956;5.876;2022-10-16T06:24:13;15.78;67.97
73112;HTU21D;61301;51.956;5.876;2022-10-16T06:26:40;15.78;68.14
73112;HTU21D;61301;51.956;5.876;2022-10-16T06:29:06;15.81;68.55
73112;HTU21D;61301;51.956;5.876;2022-10-16T06:31:32;15.76;68.87
73112;HTU21D;61301;51.956;5.876;2022-10-16T06:33:59;15.77;68.86
73112;HTU21D;61301;51.956;5.876;2022-10-16T06:36:25;15.74;69.27
73112;HTU21D;61301;51.956;5.876;2022-10-16T06:38:52;15.74;69.29
73112;HTU21D;61301;51.956;5.876;2022-10-16T06:41:20;15.72;69.62
73112;HTU21D;61301;51.956;5.876;2022-10-16T06:43:47;15.72;69.90
73112;HTU21D;61301;51.956;5.876;2022-10-16T06:46:15;15.76;69.95
73112;HTU21D;61301;51.956;5.876;2022-10-16T06:48:42;15.82;69.94
73112;HTU21D;61301;51.956;5.876;2022-10-16T06:51:11;15.90;69.68
73112;HTU21D;61301;51.956;5.876;2022-10-16T06:53:41;16.03;69.24
73112;HTU21D;61301;51.956;5.876;2022-10-16T06:56:15;16.10;69.36
73112;HTU21D;61301;51.956;5.876;2022-10-16T06:58:42;16.16;69.26
73112;HTU21D;61301;51.956;5.876;2022-10-16T07:01:08;16.18;69.25
73112;HTU21D;61301;51.956;5.876;2022-10-16T07:03:39;16.15;69.53
73112;HTU21D;61301;51.956;5.876;2022-10-16T07:06:07;16.21;69.26
73112;HTU21D;61301;51.956;5.876;2022-10-16T07:08:35;16.29;69.07
73112;HTU21D;61301;51.956;5.876;2022-10-16T07:11:04;16.30;69.08
73112;HTU21D;61301;51.956;5.876;2022-10-16T07:13:33;16.35;69.11
73112;HTU21D;61301;51.956;5.876;2022-10-16T07:16:14;16.35;69.10
73112;HTU21D;61301;51.956;5.876;2022-10-16T07:18:41;16.39;69.04
73112;HTU21D;61301;51.956;5.876;2022-10-16T07:21:13;16.36;69.10
73112;HTU21D;61301;51.956;5.876;2022-10-16T07:23:41;16.35;69.29
73112;HTU21D;61301;51.956;5.876;2022-10-16T07:26:08;16.45;68.97
73112;HTU21D;61301;51.956;5.876;2022-10-16T07:28:35;16.50;68.78
73112;HTU21D;61301;51.956;5.876;2022-10-16T07:31:15;16.56;68.58
73112;HTU21D;61301;51.956;5.876;2022-10-16T07:33:42;16.58;68.52
73112;HTU21D;61301;51.956;5.876;2022-10-16T07:36:11;16.59;68.60
73112;HTU21D;61301;51.956;5.876;2022-10-16T07:38:37;16.72;68.31
73112;HTU21D;61301;51.956;5.876;2022-10-16T07:41:08;16.77;68.27
73112;HTU21D;61301;51.956;5.876;2022-10-16T07:43:35;16.80;68.17
73112;HTU21D;61301;51.956;5.876;2022-10-16T07:46:01;16.87;68.20
73112;HTU21D;61301;51.956;5.876;2022-10-16T07:48:29;16.99;68.04
73112;HTU21D;61301;51.956;5.876;2022-10-16T07:50:59;17.13;67.46
73112;HTU21D;61301;51.956;5.876;2022-10-16T07:53:26;17.33;67.35
73112;HTU21D;61301;51.956;5.876;2022-10-16T07:55:52;17.55;66.90
73112;HTU21D;61301;51.956;5.876;2022-10-16T07:58:18;17.67;66.12
73112;HTU21D;61301;51.956;5.876;2022-10-16T08:00:44;17.70;65.65
73112;HTU21D;61301;51.956;5.876;2022-10-16T08:03:11;17.76;65.79
73112;HTU21D;61301;51.956;5.876;2022-10-16T08:05:37;17.74;65.98
73112;HTU21D;61301;51.956;5.876;2022-10-16T08:08:03;17.83;65.66
73112;HTU21D;61301;51.956;5.876;2022-10-16T08:10:31;18.09;65.40
73112;HTU21D;61301;51.956;5.876;2022-10-16T08:12:57;18.25;65.23
73112;HTU21D;61301;51.956;5.876;2022-10-16T08:15:24;18.22;64.77
73112;HTU21D;61301;51.956;5.876;2022-10-16T08:17:58;18.32;64.59
73112;HTU21D;61301;51.956;5.876;2022-10-16T08:20:25;18.39;64.25
73112;HTU21D;61301;51.956;5.876;2022-10-16T08:22:52;18.46;64.34
73112;HTU21D;61301;51.956;5.876;2022-10-16T08:25:18;18.65;64.18
73112;HTU21D;61301;51.956;5.876;2022-10-16T08:27:44;18.71;63.21
73112;HTU21D;61301;51.956;5.876;2022-10-16T08:30:14;18.76;63.53
73112;HTU21D;61301;51.956;5.876;2022-10-16T08:32:40;18.91;63.16
73112;HTU21D;61301;51.956;5.876;2022-10-16T08:35:09;18.88;62.84
73112;HTU21D;61301;51.956;5.876;2022-10-16T08:37:36;18.94;62.89
73112;HTU21D;61301;51.956;5.876;2022-10-16T08:40:03;18.93;62.41
73112;HTU21D;61301;51.956;5.876;2022-10-16T08:50:51;19.03;61.71
73112;HTU21D;61301;51.956;5.876;2022-10-16T08:53:26;19.10;61.54
73112;HTU21D;61301;51.956;5.876;2022-10-16T08:55:53;19.01;61.38
73112;HTU21D;61301;51.956;5.876;2022-10-16T08:58:27;18.98;61.44
73112;HTU21D;61301;51.956;5.876;2022-10-16T09:01:13;19.02;61.66
73112;HTU21D;61301;51.956;5.876;2022-10-16T09:04:07;19.06;61.16
73112;HTU21D;61301;51.956;5.876;2022-10-16T09:09:58;19.46;61.09
73112;HTU21D;61301;51.956;5.876;2022-10-16T09:12:38;19.55;59.46
73112;HTU21D;61301;51.956;5.876;2022-10-16T09:15:35;19.62;59.56
73112;HTU21D;61301;51.956;5.876;2022-10-16T09:20:53;19.62;59.96
73112;HTU21D;61301;51.956;5.876;2022-10-16T09:23:30;19.74;59.60
73112;HTU21D;61301;51.956;5.876;2022-10-16T09:25:56;19.80;58.53
73112;HTU21D;61301;51.956;5.876;2022-10-16T09:28:24;19.73;58.99
73112;HTU21D;61301;51.956;5.876;2022-10-16T09:30:50;19.79;59.23
73112;HTU21D;61301;51.956;5.876;2022-10-16T09:33:19;20.02;58.87
73112;HTU21D;61301;51.956;5.876;2022-10-16T09:35:53;20.01;58.38
73112;HTU21D;61301;51.956;5.876;2022-10-16T09:38:28;20.04;58.16
73112;HTU21D;61301;51.956;5.876;2022-10-16T09:40:57;20.04;58.05
73112;HTU21D;61301;51.956;5.876;2022-10-16T09:43:28;19.98;58.93
73112;HTU21D;61301;51.956;5.876;2022-10-16T09:45:59;20.16;59.06
73112;HTU21D;61301;51.956;5.876;2022-10-16T09:48:44;20.19;57.49
73112;HTU21D;61301;51.956;5.876;2022-10-16T09:51:20;20.14;57.91
73112;HTU21D;61301;51.956;5.876;2022-10-16T09:53:55;20.24;57.11
73112;HTU21D;61301;51.956;5.876;2022-10-16T09:56:32;20.29;57.11
73112;HTU21D;61301;51.956;5.876;2022-10-16T09:59:01;20.20;57.88
73112;HTU21D;61301;51.956;5.876;2022-10-16T10:01:37;20.26;57.17
73112;HTU21D;61301;51.956;5.876;2022-10-16T10:04:04;20.35;57.80
73112;HTU21D;61301;51.956;5.876;2022-10-16T10:06:59;20.62;56.64
73112;HTU21D;61301;51.956;5.876;2022-10-16T10:09:28;20.66;56.89
73112;HTU21D;61301;51.956;5.876;2022-10-16T10:12:01;20.69;56.32
73112;HTU21D;61301;51.956;5.876;2022-10-16T10:14:31;20.53;56.72
73112;HTU21D;61301;51.956;5.876;2022-10-16T10:19:39;20.73;56.45
73112;HTU21D;61301;51.956;5.876;2022-10-16T10:30:20;21.08;54.97
73112;HTU21D;61301;51.956;5.876;2022-10-16T10:41:01;21.18;53.83
73112;HTU21D;61301;51.956;5.876;2022-10-16T10:46:05;21.06;53.23
73112;HTU21D;61301;51.956;5.876;2022-10-16T10:48:58;21.28;53.41
73112;HTU21D;61301;51.956;5.876;2022-10-16T10:54:14;21.54;50.94
73112;HTU21D;61301;51.956;5.876;2022-10-16T10:56:47;21.57;50.45
73112;HTU21D;61301;51.956;5.876;2022-10-16T10:59:25;21.58;50.96
73112;HTU21D;61301;51.956;5.876;2022-10-16T11:07:23;21.95;51.40
73112;HTU21D;61301;51.956;5.876;2022-10-16T11:09:55;22.12;49.22
73112;HTU21D;61301;51.956;5.876;2022-10-16T11:12:48;22.26;50.00
73112;HTU21D;61301;51.956;5.876;2022-10-16T11:15:24;22.32;49.82
73112;HTU21D;61301;51.956;5.876;2022-10-16T11:20:26;22.44;48.36
73112;HTU21D;61301;51.956;5.876;2022-10-16T11:26:08;22.68;47.51
73112;HTU21D;61301;51.956;5.876;2022-10-16T11:28:40;22.41;47.67
73112;HTU21D;61301;51.956;5.876;2022-10-16T11:33:52;22.17;47.54
73112;HTU21D;61301;51.956;5.876;2022-10-16T11:36:27;22.22;48.59
73112;HTU21D;61301;51.956;5.876;2022-10-16T11:45:00;21.91;49.42
73112;HTU21D;61301;51.956;5.876;2022-10-16T11:50:25;22.07;48.98
73112;HTU21D;61301;51.956;5.876;2022-10-16T11:53:04;22.31;47.86
73112;HTU21D;61301;51.956;5.876;2022-10-16T11:55:40;22.38;47.89
73112;HTU21D;61301;51.956;5.876;2022-10-16T11:58:19;22.56;46.56
73112;HTU21D;61301;51.956;5.876;2022-10-16T12:01:01;22.67;47.86
73112;HTU21D;61301;51.956;5.876;2022-10-16T12:03:56;22.68;46.57
73112;HTU21D;61301;51.956;5.876;2022-10-16T12:06:40;22.66;47.20
73112;HTU21D;61301;51.956;5.876;2022-10-16T12:09:27;22.48;47.05
73112;HTU21D;61301;51.956;5.876;2022-10-16T12:11:55;22.35;48.22
73112;HTU21D;61301;51.956;5.876;2022-10-16T12:19:30;22.83;46.26
73112;HTU21D;61301;51.956;5.876;2022-10-16T12:22:02;23.01;46.78
73112;HTU21D;61301;51.956;5.876;2022-10-16T12:24:37;23.23;47.40
73112;HTU21D;61301;51.956;5.876;2022-10-16T12:27:06;23.46;46.27
73112;HTU21D;61301;51.956;5.876;2022-10-16T12:29:36;23.59;45.71
73112;HTU21D;61301;51.956;5.876;2022-10-16T12:32:04;23.60;45.15
73112;HTU21D;61301;51.956;5.876;2022-10-16T12:34:40;23.39;44.66
73112;HTU21D;61301;51.956;5.876;2022-10-16T12:37:24;23.61;45.34
73112;HTU21D;61301;51.956;5.876;2022-10-16T12:39:53;23.74;44.83
73112;HTU21D;61301;51.956;5.876;2022-10-16T12:44:53;23.79;43.45
73112;HTU21D;61301;51.956;5.876;2022-10-16T12:49:59;23.71;44.09
73112;HTU21D;61301;51.956;5.876;2022-10-16T12:52:35;23.94;44.83
73112;HTU21D;61301;51.956;5.876;2022-10-16T12:55:03;24.11;45.22
73112;HTU21D;61301;51.956;5.876;2022-10-16T13:00:25;24.47;43.35
73112;HTU21D;61301;51.956;5.876;2022-10-16T13:14:41;24.83;41.62
73112;HTU21D;61301;51.956;5.876;2022-10-16T13:23:05;24.98;41.67
73112;HTU21D;61301;51.956;5.876;2022-10-16T13:25:54;24.86;42.03
73112;HTU21D;61301;51.956;5.876;2022-10-16T13:28:28;24.61;42.44
73112;HTU21D;61301;51.956;5.876;2022-10-16T13:31:00;24.75;42.30
73112;HTU21D;61301;51.956;5.876;2022-10-16T13:33:34;24.87;42.52
73112;HTU21D;61301;51.956;5.876;2022-10-16T13:36:04;24.98;40.79
73112;HTU21D;61301;51.956;5.876;2022-10-16T13:38:33;25.14;40.60
73112;HTU21D;61301;51.956;5.876;2022-10-16T13:41:02;25.15;40.62
73112;HTU21D;61301;51.956;5.876;2022-10-16T13:46:10;25.33;40.42
73112;HTU21D;61301;51.956;5.876;2022-10-16T13:48:37;25.18;40.19
73112;HTU21D;61301;51.956;5.876;2022-10-16T13:51:16;25.15;40.82
73112;HTU21D;61301;51.956;5.876;2022-10-16T13:53:44;25.18;41.25
73112;HTU21D;61301;51.956;5.876;2022-10-16T13:56:13;25.39;41.16
73112;HTU21D;61301;51.956;5.876;2022-10-16T13:58:39;25.42;40.55
73112;HTU21D;61301;51.956;5.876;2022-10-16T14:01:18;25.53;39.73
73112;HTU21D;61301;51.956;5.876;2022-10-16T14:03:46;25.61;39.60
73112;HTU21D;61301;51.956;5.876;2022-10-16T14:06:20;25.54;39.36
73112;HTU21D;61301;51.956;5.876;2022-10-16T14:09:06;25.54;39.60
73112;HTU21D;61301;51.956;5.876;2022-10-16T14:11:34;25.58;40.16
73112;HTU21D;61301;51.956;5.876;2022-10-16T14:14:03;25.58;39.54
73112;HTU21D;61301;51.956;5.876;2022-10-16T14:16:32;25.66;40.33
73112;HTU21D;61301;51.956;5.876;2022-10-16T14:19:04;25.56;40.00
73112;HTU21D;61301;51.956;5.876;2022-10-16T14:21:37;25.65;40.95
73112;HTU21D;61301;51.956;5.876;2022-10-16T14:24:13;25.81;41.20
73112;HTU21D;61301;51.956;5.876;2022-10-16T14:26:47;25.92;41.39
73112;HTU21D;61301;51.956;5.876;2022-10-16T14:29:18;25.80;40.76
73112;HTU21D;61301;51.956;5.876;2022-10-16T14:32:02;25.69;41.01
73112;HTU21D;61301;51.956;5.876;2022-10-16T14:34:37;25.58;41.11
73112;HTU21D;61301;51.956;5.876;2022-10-16T14:37:07;25.53;41.46
73112;HTU21D;61301;51.956;5.876;2022-10-16T14:39:35;25.48;42.13
73112;HTU21D;61301;51.956;5.876;2022-10-16T14:42:04;25.47;42.24
73112;HTU21D;61301;51.956;5.876;2022-10-16T14:44:33;25.56;42.50
73112;HTU21D;61301;51.956;5.876;2022-10-16T14:47:08;25.58;42.44
73112;HTU21D;61301;51.956;5.876;2022-10-16T14:49:35;25.57;42.46
73112;HTU21D;61301;51.956;5.876;2022-10-16T14:52:01;25.44;42.40
73112;HTU21D;61301;51.956;5.876;2022-10-16T14:54:30;25.34;43.00
73112;HTU21D;61301;51.956;5.876;2022-10-16T14:56:57;25.23;43.12
73112;HTU21D;61301;51.956;5.876;2022-10-16T14:59:29;25.09;43.27
73112;HTU21D;61301;51.956;5.876;2022-10-16T15:01:56;24.84;43.70
73112;HTU21D;61301;51.956;5.876;2022-10-16T15:04:22;24.69;44.24
73112;HTU21D;61301;51.956;5.876;2022-10-16T15:06:48;24.61;44.46
73112;HTU21D;61301;51.956;5.876;2022-10-16T15:09:14;24.51;44.00
73112;HTU21D;61301;51.956;5.876;2022-10-16T15:11:41;24.33;43.39
73112;HTU21D;61301;51.956;5.876;2022-10-16T15:14:11;24.10;43.56
73112;HTU21D;61301;51.956;5.876;2022-10-16T15:16:38;23.97;43.78
73112;HTU21D;61301;51.956;5.876;2022-10-16T15:19:04;23.82;44.43
73112;HTU21D;61301;51.956;5.876;2022-10-16T15:21:32;23.70;44.52
73112;HTU21D;61301;51.956;5.876;2022-10-16T15:23:59;23.56;44.25
73112;HTU21D;61301;51.956;5.876;2022-10-16T15:26:27;23.45;44.64
73112;HTU21D;61301;51.956;5.876;2022-10-16T15:28:53;23.37;44.99
73112;HTU21D;61301;51.956;5.876;2022-10-16T15:31:20;23.24;44.93
73112;HTU21D;61301;51.956;5.876;2022-10-16T15:33:50;23.14;45.11
73112;HTU21D;61301;51.956;5.876;2022-10-16T15:36:36;23.12;45.00
73112;HTU21D;61301;51.956;5.876;2022-10-16T15:41:36;22.97;45.86
73112;HTU21D;61301;51.956;5.876;2022-10-16T15:44:02;22.92;46.20
73112;HTU21D;61301;51.956;5.876;2022-10-16T15:46:28;22.82;46.49
73112;HTU21D;61301;51.956;5.876;2022-10-16T15:48:58;22.78;46.69
73112;HTU21D;61301;51.956;5.876;2022-10-16T15:51:25;22.75;46.94
73112;HTU21D;61301;51.956;5.876;2022-10-16T15:53:53;22.70;47.12
73112;HTU21D;61301;51.956;5.876;2022-10-16T15:56:19;22.60;47.55
73112;HTU21D;61301;51.956;5.876;2022-10-16T15:58:45;22.57;47.47
73112;HTU21D;61301;51.956;5.876;2022-10-16T16:01:11;22.55;47.41
73112;HTU21D;61301;51.956;5.876;2022-10-16T16:03:38;22.50;47.42
73112;HTU21D;61301;51.956;5.876;2022-10-16T16:06:08;22.40;47.27
73112;HTU21D;61301;51.956;5.876;2022-10-16T16:08:35;22.32;47.51
73112;HTU21D;61301;51.956;5.876;2022-10-16T16:11:06;22.24;47.78
73112;HTU21D;61301;51.956;5.876;2022-10-16T16:13:33;22.14;48.05
73112;HTU21D;61301;51.956;5.876;2022-10-16T16:15:59;22.09;48.23
73112;HTU21D;61301;51.956;5.876;2022-10-16T16:18:25;22.02;48.41
73112;HTU21D;61301;51.956;5.876;2022-10-16T16:20:52;22.03;48.66
73112;HTU21D;61301;51.956;5.876;2022-10-16T16:23:18;22.04;48.78
73112;HTU21D;61301;51.956;5.876;2022-10-16T16:25:45;22.04;48.88
73112;HTU21D;61301;51.956;5.876;2022-10-16T16:28:27;22.03;48.87
73112;HTU21D;61301;51.956;5.876;2022-10-16T16:30:53;22.05;48.93
73112;HTU21D;61301;51.956;5.876;2022-10-16T16:33:19;21.96;48.92
73112;HTU21D;61301;51.956;5.876;2022-10-16T16:35:48;21.84;49.47
73112;HTU21D;61301;51.956;5.876;2022-10-16T16:38:14;21.90;49.55
73112;HTU21D;61301;51.956;5.876;2022-10-16T16:40:40;21.94;49.58
73112;HTU21D;61301;51.956;5.876;2022-10-16T16:43:06;21.84;49.96
73112;HTU21D;61301;51.956;5.876;2022-10-16T16:45:35;21.74;50.35
73112;HTU21D;61301;51.956;5.876;2022-10-16T16:48:01;21.68;50.43
73112;HTU21D;61301;51.956;5.876;2022-10-16T16:50:28;21.72;50.24
73112;HTU21D;61301;51.956;5.876;2022-10-16T16:52:54;21.61;50.45
73112;HTU21D;61301;51.956;5.876;2022-10-16T16:55:20;21.54;50.63
73112;HTU21D;61301;51.956;5.876;2022-10-16T16:57:48;21.57;50.76
73112;HTU21D;61301;51.956;5.876;2022-10-16T17:00:17;21.62;50.81
73112;HTU21D;61301;51.956;5.876;2022-10-16T17:02:42;21.64;50.92
73112;HTU21D;61301;51.956;5.876;2022-10-16T17:05:10;21.57;50.88
73112;HTU21D;61301;51.956;5.876;2022-10-16T17:07:36;21.55;50.84
73112;HTU21D;61301;51.956;5.876;2022-10-16T17:10:06;21.59;50.82
73112;HTU21D;61301;51.956;5.876;2022-10-16T17:12:33;21.64;50.76
73112;HTU21D;61301;51.956;5.876;2022-10-16T17:14:59;21.73;50.58
73112;HTU21D;61301;51.956;5.876;2022-10-16T17:17:25;21.73;50.59
73112;HTU21D;61301;51.956;5.876;2022-10-16T17:19:53;21.66;50.75